sensor_id;sensor_type;location;lat;lon;timestamp;P1;durP1;ratioP1;P2;durP2;ratioP2
6306;SDS011;3186;54.062;9.962;2022-07-04T00:00:49;4.50;;;1.13;;
6306;SDS011;3186;54.062;9.962;2022-07-04T00:03:15;2.13;;;1.07;;
6306;SDS011;3186;54.062;9.962;2022-07-04T00:05:41;1.80;;;1.10;;
6306;SDS011;3186;54.062;9.962;2022-07-04T00:08:06;4.30;;;1.17;;
6306;SDS011;3186;54.062;9.962;2022-07-04T00:10:32;2.77;;;1.33;;
6306;SDS011;3186;54.062;9.962;2022-07-04T00:12:58;1.87;;;1.40;;
6306;SDS011;3186;54.062;9.962;2022-07-04T00:15:24;3.10;;;1.53;;
6306;SDS011;3186;54.062;9.962;2022-07-04T00:17:51;1.37;;;1.13;;
6306;SDS011;3186;54.062;9.962;2022-07-04T00:20:17;2.00;;;1.37;;
6306;SDS011;3186;54.062;9.962;2022-07-04T00:22:43;5.30;;;1.70;;
6306;SDS011;3186;54.062;9.962;2022-07-04T00:25:09;3.97;;;1.93;;
6306;SDS011;3186;54.062;9.962;2022-07-04T00:27:35;3.93;;;1.57;;
6306;SDS011;3186;54.062;9.962;2022-07-04T00:30:02;4.13;;;1.67;;
6306;SDS011;3186;54.062;9.962;2022-07-04T00:32:29;5.30;;;1.87;;
6306;SDS011;3186;54.062;9.962;2022-07-04T00:34:55;2.97;;;1.80;;
6306;SDS011;3186;54.062;9.962;2022-07-04T00:37:21;4.37;;;1.80;;
6306;SDS011;3186;54.062;9.962;2022-07-04T00:39:47;2.80;;;1.40;;
6306;SDS011;3186;54.062;9.962;2022-07-04T00:42:12;4.53;;;1.70;;
6306;SDS011;3186;54.062;9.962;2022-07-04T00:44:38;3.50;;;1.70;;
6306;SDS011;3186;54.062;9.962;2022-07-04T00:47:05;3.03;;;1.80;;
6306;SDS011;3186;54.062;9.962;2022-07-04T00:49:32;4.30;;;1.83;;
6306;SDS011;3186;54.062;9.962;2022-07-04T00:51:58;6.87;;;2.17;;
6306;SDS011;3186;54.062;9.962;2022-07-04T00:54:25;2.80;;;1.60;;
6306;SDS011;3186;54.062;9.962;2022-07-04T00:56:54;8.73;;;2.03;;
6306;SDS011;3186;54.062;9.962;2022-07-04T00:59:21;2.63;;;1.80;;
6306;SDS011;3186;54.062;9.962;2022-07-04T01:01:47;4.00;;;1.70;;
6306;SDS011;3186;54.062;9.962;2022-07-04T01:04:14;2.03;;;1.70;;
6306;SDS011;3186;54.062;9.962;2022-07-04T01:06:40;4.57;;;1.90;;
6306;SDS011;3186;54.062;9.962;2022-07-04T01:09:07;4.27;;;1.53;;
6306;SDS011;3186;54.062;9.962;2022-07-04T01:11:33;4.00;;;1.57;;
6306;SDS011;3186;54.062;9.962;2022-07-04T01:13:59;7.40;;;2.10;;
6306;SDS011;3186;54.062;9.962;2022-07-04T01:16:25;4.97;;;2.20;;
6306;SDS011;3186;54.062;9.962;2022-07-04T01:18:52;2.13;;;1.80;;
6306;SDS011;3186;54.062;9.962;2022-07-04T01:21:18;5.53;;;2.30;;
6306;SDS011;3186;54.062;9.962;2022-07-04T01:23:44;4.67;;;2.00;;
6306;SDS011;3186;54.062;9.962;2022-07-04T01:26:10;5.60;;;2.23;;
6306;SDS011;3186;54.062;9.962;2022-07-04T01:28:36;1.83;;;1.70;;
6306;SDS011;3186;54.062;9.962;2022-07-04T01:31:03;5.80;;;1.87;;
6306;SDS011;3186;54.062;9.962;2022-07-04T01:33:29;3.87;;;1.87;;
6306;SDS011;3186;54.062;9.962;2022-07-04T01:35:55;2.37;;;1.90;;
6306;SDS011;3186;54.062;9.962;2022-07-04T01:38:21;2.97;;;1.77;;
6306;SDS011;3186;54.062;9.962;2022-07-04T01:40:47;3.43;;;1.70;;
6306;SDS011;3186;54.062;9.962;2022-07-04T01:43:13;5.27;;;2.10;;
6306;SDS011;3186;54.062;9.962;2022-07-04T01:45:39;3.60;;;2.10;;
6306;SDS011;3186;54.062;9.962;2022-07-04T01:48:05;4.40;;;2.13;;
6306;SDS011;3186;54.062;9.962;2022-07-04T01:50:32;3.03;;;1.93;;
6306;SDS011;3186;54.062;9.962;2022-07-04T01:52:59;2.33;;;1.90;;
6306;SDS011;3186;54.062;9.962;2022-07-04T01:55:25;4.27;;;2.43;;
6306;SDS011;3186;54.062;9.962;2022-07-04T01:57:51;3.50;;;2.30;;
6306;SDS011;3186;54.062;9.962;2022-07-04T02:00:16;5.27;;;2.10;;
6306;SDS011;3186;54.062;9.962;2022-07-04T02:03:01;3.93;;;2.40;;
6306;SDS011;3186;54.062;9.962;2022-07-04T02:05:27;6.23;;;2.33;;
6306;SDS011;3186;54.062;9.962;2022-07-04T02:07:53;4.90;;;2.10;;
6306;SDS011;3186;54.062;9.962;2022-07-04T02:10:19;3.33;;;2.43;;
6306;SDS011;3186;54.062;9.962;2022-07-04T02:12:45;2.87;;;2.17;;
6306;SDS011;3186;54.062;9.962;2022-07-04T02:15:39;4.00;;;2.17;;
6306;SDS011;3186;54.062;9.962;2022-07-04T02:18:07;4.57;;;2.17;;
6306;SDS011;3186;54.062;9.962;2022-07-04T02:20:34;2.53;;;2.20;;
6306;SDS011;3186;54.062;9.962;2022-07-04T02:23:02;4.73;;;2.40;;
6306;SDS011;3186;54.062;9.962;2022-07-04T02:25:28;5.03;;;1.90;;
6306;SDS011;3186;54.062;9.962;2022-07-04T02:27:55;3.70;;;2.10;;
6306;SDS011;3186;54.062;9.962;2022-07-04T02:30:21;4.87;;;2.07;;
6306;SDS011;3186;54.062;9.962;2022-07-04T02:32:47;3.37;;;2.10;;
6306;SDS011;3186;54.062;9.962;2022-07-04T02:35:13;6.50;;;2.20;;
6306;SDS011;3186;54.062;9.962;2022-07-04T02:37:39;8.70;;;2.70;;
6306;SDS011;3186;54.062;9.962;2022-07-04T02:40:06;5.47;;;2.10;;
6306;SDS011;3186;54.062;9.962;2022-07-04T02:42:33;5.43;;;2.07;;
6306;SDS011;3186;54.062;9.962;2022-07-04T02:45:00;2.70;;;2.03;;
6306;SDS011;3186;54.062;9.962;2022-07-04T02:47:26;5.30;;;2.43;;
6306;SDS011;3186;54.062;9.962;2022-07-04T02:49:52;2.23;;;1.90;;
6306;SDS011;3186;54.062;9.962;2022-07-04T02:52:19;3.93;;;2.27;;
6306;SDS011;3186;54.062;9.962;2022-07-04T02:54:45;5.57;;;2.20;;
6306;SDS011;3186;54.062;9.962;2022-07-04T02:57:12;4.83;;;2.00;;
6306;SDS011;3186;54.062;9.962;2022-07-04T02:59:38;1.63;;;1.53;;
6306;SDS011;3186;54.062;9.962;2022-07-04T03:02:04;6.27;;;2.13;;
6306;SDS011;3186;54.062;9.962;2022-07-04T03:04:30;3.33;;;2.17;;
6306;SDS011;3186;54.062;9.962;2022-07-04T03:06:56;4.33;;;1.90;;
6306;SDS011;3186;54.062;9.962;2022-07-04T03:09:22;2.73;;;2.30;;
6306;SDS011;3186;54.062;9.962;2022-07-04T03:11:48;3.97;;;1.77;;
6306;SDS011;3186;54.062;9.962;2022-07-04T03:14:14;3.53;;;1.90;;
6306;SDS011;3186;54.062;9.962;2022-07-04T03:16:39;4.07;;;2.00;;
6306;SDS011;3186;54.062;9.962;2022-07-04T03:19:05;3.30;;;1.87;;
6306;SDS011;3186;54.062;9.962;2022-07-04T03:21:31;3.33;;;1.70;;
6306;SDS011;3186;54.062;9.962;2022-07-04T03:23:57;4.83;;;2.07;;
6306;SDS011;3186;54.062;9.962;2022-07-04T03:26:26;3.97;;;2.03;;
6306;SDS011;3186;54.062;9.962;2022-07-04T03:28:57;2.83;;;1.93;;
6306;SDS011;3186;54.062;9.962;2022-07-04T03:31:24;3.47;;;1.93;;
6306;SDS011;3186;54.062;9.962;2022-07-04T03:33:52;6.30;;;2.10;;
6306;SDS011;3186;54.062;9.962;2022-07-04T03:36:19;3.77;;;2.20;;
6306;SDS011;3186;54.062;9.962;2022-07-04T03:38:46;7.80;;;2.47;;
6306;SDS011;3186;54.062;9.962;2022-07-04T03:41:12;3.57;;;2.10;;
6306;SDS011;3186;54.062;9.962;2022-07-04T03:43:38;4.53;;;1.80;;
6306;SDS011;3186;54.062;9.962;2022-07-04T03:46:04;4.40;;;1.90;;
6306;SDS011;3186;54.062;9.962;2022-07-04T03:48:30;3.43;;;2.17;;
6306;SDS011;3186;54.062;9.962;2022-07-04T03:50:56;4.07;;;2.20;;
6306;SDS011;3186;54.062;9.962;2022-07-04T03:53:22;6.63;;;2.10;;
6306;SDS011;3186;54.062;9.962;2022-07-04T03:55:48;2.53;;;1.87;;
6306;SDS011;3186;54.062;9.962;2022-07-04T03:58:14;2.67;;;1.77;;
6306;SDS011;3186;54.062;9.962;2022-07-04T04:00:40;3.33;;;1.70;;
6306;SDS011;3186;54.062;9.962;2022-07-04T04:03:07;2.10;;;1.90;;
6306;SDS011;3186;54.062;9.962;2022-07-04T04:05:52;6.87;;;2.03;;
6306;SDS011;3186;54.062;9.962;2022-07-04T04:08:18;3.97;;;1.80;;
6306;SDS011;3186;54.062;9.962;2022-07-04T04:10:43;4.50;;;2.30;;
6306;SDS011;3186;54.062;9.962;2022-07-04T04:13:09;4.00;;;2.27;;
6306;SDS011;3186;54.062;9.962;2022-07-04T04:15:35;2.17;;;2.00;;
6306;SDS011;3186;54.062;9.962;2022-07-04T04:18:01;3.97;;;2.23;;
6306;SDS011;3186;54.062;9.962;2022-07-04T04:20:27;4.83;;;2.57;;
6306;SDS011;3186;54.062;9.962;2022-07-04T04:22:52;4.60;;;2.47;;
6306;SDS011;3186;54.062;9.962;2022-07-04T04:25:18;2.67;;;1.70;;
6306;SDS011;3186;54.062;9.962;2022-07-04T04:27:44;3.63;;;2.17;;
6306;SDS011;3186;54.062;9.962;2022-07-04T04:30:10;2.67;;;1.90;;
6306;SDS011;3186;54.062;9.962;2022-07-04T04:32:37;3.47;;;2.10;;
6306;SDS011;3186;54.062;9.962;2022-07-04T04:35:03;2.10;;;2.00;;
6306;SDS011;3186;54.062;9.962;2022-07-04T04:37:29;4.93;;;2.10;;
6306;SDS011;3186;54.062;9.962;2022-07-04T04:39:55;2.43;;;2.20;;
6306;SDS011;3186;54.062;9.962;2022-07-04T04:42:20;3.67;;;2.30;;
6306;SDS011;3186;54.062;9.962;2022-07-04T04:44:46;3.20;;;2.27;;
6306;SDS011;3186;54.062;9.962;2022-07-04T04:47:13;3.00;;;2.00;;
6306;SDS011;3186;54.062;9.962;2022-07-04T04:49:39;2.33;;;2.10;;
6306;SDS011;3186;54.062;9.962;2022-07-04T04:52:04;3.70;;;2.00;;
6306;SDS011;3186;54.062;9.962;2022-07-04T04:54:31;3.67;;;1.60;;
6306;SDS011;3186;54.062;9.962;2022-07-04T04:56:58;4.03;;;2.20;;
6306;SDS011;3186;54.062;9.962;2022-07-04T04:59:24;4.67;;;2.20;;
6306;SDS011;3186;54.062;9.962;2022-07-04T05:01:50;3.73;;;2.30;;
6306;SDS011;3186;54.062;9.962;2022-07-04T05:04:16;4.57;;;2.47;;
6306;SDS011;3186;54.062;9.962;2022-07-04T05:06:42;2.70;;;1.77;;
6306;SDS011;3186;54.062;9.962;2022-07-04T05:09:08;2.40;;;1.63;;
6306;SDS011;3186;54.062;9.962;2022-07-04T05:11:34;2.20;;;1.60;;
6306;SDS011;3186;54.062;9.962;2022-07-04T05:13:59;4.70;;;2.50;;
6306;SDS011;3186;54.062;9.962;2022-07-04T05:16:25;4.50;;;2.50;;
6306;SDS011;3186;54.062;9.962;2022-07-04T05:18:51;2.23;;;1.57;;
6306;SDS011;3186;54.062;9.962;2022-07-04T05:21:17;7.53;;;2.67;;
6306;SDS011;3186;54.062;9.962;2022-07-04T05:23:43;4.17;;;2.00;;
6306;SDS011;3186;54.062;9.962;2022-07-04T05:26:08;3.00;;;2.17;;
6306;SDS011;3186;54.062;9.962;2022-07-04T05:28:34;5.17;;;1.77;;
6306;SDS011;3186;54.062;9.962;2022-07-04T05:31:00;2.97;;;2.17;;
6306;SDS011;3186;54.062;9.962;2022-07-04T05:33:26;5.03;;;2.20;;
6306;SDS011;3186;54.062;9.962;2022-07-04T05:35:52;6.33;;;2.30;;
6306;SDS011;3186;54.062;9.962;2022-07-04T05:38:17;3.17;;;1.87;;
6306;SDS011;3186;54.062;9.962;2022-07-04T05:40:43;5.53;;;2.60;;
6306;SDS011;3186;54.062;9.962;2022-07-04T05:43:09;4.13;;;1.87;;
6306;SDS011;3186;54.062;9.962;2022-07-04T05:45:37;2.93;;;1.80;;
6306;SDS011;3186;54.062;9.962;2022-07-04T05:48:03;3.50;;;1.63;;
6306;SDS011;3186;54.062;9.962;2022-07-04T05:50:29;3.63;;;2.20;;
6306;SDS011;3186;54.062;9.962;2022-07-04T05:52:55;5.50;;;2.20;;
6306;SDS011;3186;54.062;9.962;2022-07-04T05:55:20;3.27;;;1.97;;
6306;SDS011;3186;54.062;9.962;2022-07-04T05:57:46;4.00;;;2.23;;
6306;SDS011;3186;54.062;9.962;2022-07-04T06:00:12;4.40;;;2.10;;
6306;SDS011;3186;54.062;9.962;2022-07-04T06:02:38;2.33;;;1.77;;
6306;SDS011;3186;54.062;9.962;2022-07-04T06:05:04;4.67;;;2.10;;
6306;SDS011;3186;54.062;9.962;2022-07-04T06:07:33;4.87;;;2.30;;
6306;SDS011;3186;54.062;9.962;2022-07-04T06:09:59;5.43;;;2.07;;
6306;SDS011;3186;54.062;9.962;2022-07-04T06:12:25;3.33;;;1.80;;
6306;SDS011;3186;54.062;9.962;2022-07-04T06:14:51;5.33;;;2.17;;
6306;SDS011;3186;54.062;9.962;2022-07-04T06:17:17;5.33;;;1.73;;
6306;SDS011;3186;54.062;9.962;2022-07-04T06:19:42;4.47;;;2.03;;
6306;SDS011;3186;54.062;9.962;2022-07-04T06:22:08;3.60;;;1.77;;
6306;SDS011;3186;54.062;9.962;2022-07-04T06:24:34;3.10;;;1.83;;
6306;SDS011;3186;54.062;9.962;2022-07-04T06:27:00;4.50;;;1.80;;
6306;SDS011;3186;54.062;9.962;2022-07-04T06:29:26;3.77;;;1.87;;
6306;SDS011;3186;54.062;9.962;2022-07-04T06:31:52;3.73;;;2.30;;
6306;SDS011;3186;54.062;9.962;2022-07-04T06:34:18;2.17;;;1.80;;
6306;SDS011;3186;54.062;9.962;2022-07-04T06:37:03;4.47;;;1.63;;
6306;SDS011;3186;54.062;9.962;2022-07-04T06:39:29;3.43;;;1.70;;
6306;SDS011;3186;54.062;9.962;2022-07-04T06:41:54;2.37;;;1.47;;
6306;SDS011;3186;54.062;9.962;2022-07-04T06:44:20;6.63;;;2.53;;
6306;SDS011;3186;54.062;9.962;2022-07-04T06:46:46;3.57;;;1.80;;
6306;SDS011;3186;54.062;9.962;2022-07-04T06:49:12;6.83;;;2.20;;
6306;SDS011;3186;54.062;9.962;2022-07-04T06:51:38;3.73;;;1.40;;
6306;SDS011;3186;54.062;9.962;2022-07-04T06:54:05;4.70;;;2.00;;
6306;SDS011;3186;54.062;9.962;2022-07-04T06:56:31;2.50;;;1.67;;
6306;SDS011;3186;54.062;9.962;2022-07-04T06:58:57;2.67;;;1.50;;
6306;SDS011;3186;54.062;9.962;2022-07-04T07:01:22;4.10;;;1.90;;
6306;SDS011;3186;54.062;9.962;2022-07-04T07:03:48;3.67;;;1.50;;
6306;SDS011;3186;54.062;9.962;2022-07-04T07:06:14;2.87;;;1.30;;
6306;SDS011;3186;54.062;9.962;2022-07-04T07:08:40;4.57;;;1.43;;
6306;SDS011;3186;54.062;9.962;2022-07-04T07:11:06;3.37;;;1.50;;
6306;SDS011;3186;54.062;9.962;2022-07-04T07:13:42;5.60;;;1.60;;
6306;SDS011;3186;54.062;9.962;2022-07-04T07:16:09;5.50;;;1.67;;
6306;SDS011;3186;54.062;9.962;2022-07-04T07:18:35;3.33;;;1.43;;
6306;SDS011;3186;54.062;9.962;2022-07-04T07:21:01;4.30;;;1.30;;
6306;SDS011;3186;54.062;9.962;2022-07-04T07:23:27;3.87;;;1.27;;
6306;SDS011;3186;54.062;9.962;2022-07-04T07:25:54;3.50;;;1.57;;
6306;SDS011;3186;54.062;9.962;2022-07-04T07:28:19;3.73;;;1.37;;
6306;SDS011;3186;54.062;9.962;2022-07-04T07:30:45;1.97;;;1.10;;
6306;SDS011;3186;54.062;9.962;2022-07-04T07:33:11;4.90;;;1.70;;
6306;SDS011;3186;54.062;9.962;2022-07-04T07:35:37;2.47;;;1.30;;
6306;SDS011;3186;54.062;9.962;2022-07-04T07:38:03;3.53;;;1.50;;
6306;SDS011;3186;54.062;9.962;2022-07-04T07:40:31;3.20;;;1.20;;
6306;SDS011;3186;54.062;9.962;2022-07-04T07:42:57;2.20;;;1.20;;
6306;SDS011;3186;54.062;9.962;2022-07-04T07:45:22;2.63;;;1.50;;
6306;SDS011;3186;54.062;9.962;2022-07-04T07:47:48;3.07;;;1.60;;
6306;SDS011;3186;54.062;9.962;2022-07-04T07:50:14;2.30;;;1.30;;
6306;SDS011;3186;54.062;9.962;2022-07-04T07:52:40;3.73;;;1.37;;
6306;SDS011;3186;54.062;9.962;2022-07-04T07:55:06;2.20;;;1.40;;
6306;SDS011;3186;54.062;9.962;2022-07-04T07:57:32;2.90;;;1.30;;
6306;SDS011;3186;54.062;9.962;2022-07-04T07:59:58;3.67;;;1.57;;
6306;SDS011;3186;54.062;9.962;2022-07-04T08:02:24;4.67;;;1.53;;
6306;SDS011;3186;54.062;9.962;2022-07-04T08:05:09;3.30;;;1.20;;
6306;SDS011;3186;54.062;9.962;2022-07-04T08:07:35;3.03;;;1.20;;
6306;SDS011;3186;54.062;9.962;2022-07-04T08:10:02;3.63;;;1.10;;
6306;SDS011;3186;54.062;9.962;2022-07-04T08:12:28;2.33;;;1.40;;
6306;SDS011;3186;54.062;9.962;2022-07-04T08:14:54;1.80;;;1.27;;
6306;SDS011;3186;54.062;9.962;2022-07-04T08:17:20;2.33;;;1.20;;
6306;SDS011;3186;54.062;9.962;2022-07-04T08:19:45;3.33;;;1.40;;
6306;SDS011;3186;54.062;9.962;2022-07-04T08:22:13;2.20;;;1.10;;
6306;SDS011;3186;54.062;9.962;2022-07-04T08:24:39;3.80;;;1.20;;
6306;SDS011;3186;54.062;9.962;2022-07-04T08:27:04;4.23;;;1.40;;
6306;SDS011;3186;54.062;9.962;2022-07-04T08:29:31;4.73;;;1.47;;
6306;SDS011;3186;54.062;9.962;2022-07-04T08:31:57;2.03;;;1.50;;
6306;SDS011;3186;54.062;9.962;2022-07-04T08:34:23;3.37;;;1.20;;
6306;SDS011;3186;54.062;9.962;2022-07-04T08:36:49;4.20;;;1.13;;
6306;SDS011;3186;54.062;9.962;2022-07-04T08:39:15;3.63;;;1.30;;
6306;SDS011;3186;54.062;9.962;2022-07-04T08:41:42;3.10;;;1.20;;
6306;SDS011;3186;54.062;9.962;2022-07-04T08:44:08;2.80;;;1.50;;
6306;SDS011;3186;54.062;9.962;2022-07-04T08:46:37;2.57;;;1.40;;
6306;SDS011;3186;54.062;9.962;2022-07-04T08:49:08;3.07;;;1.30;;
6306;SDS011;3186;54.062;9.962;2022-07-04T08:51:52;1.77;;;1.20;;
6306;SDS011;3186;54.062;9.962;2022-07-04T08:54:24;3.63;;;1.30;;
6306;SDS011;3186;54.062;9.962;2022-07-04T08:57:08;4.30;;;2.10;;
6306;SDS011;3186;54.062;9.962;2022-07-04T08:59:53;3.53;;;1.40;;
6306;SDS011;3186;54.062;9.962;2022-07-04T09:02:20;2.93;;;1.40;;
6306;SDS011;3186;54.062;9.962;2022-07-04T09:04:49;1.47;;;1.30;;
6306;SDS011;3186;54.062;9.962;2022-07-04T09:07:15;4.33;;;1.20;;
6306;SDS011;3186;54.062;9.962;2022-07-04T09:09:41;2.80;;;1.20;;
6306;SDS011;3186;54.062;9.962;2022-07-04T09:12:10;1.23;;;1.00;;
6306;SDS011;3186;54.062;9.962;2022-07-04T09:14:37;2.70;;;1.10;;
6306;SDS011;3186;54.062;9.962;2022-07-04T09:17:04;4.30;;;1.10;;
6306;SDS011;3186;54.062;9.962;2022-07-04T09:19:31;2.10;;;1.27;;
6306;SDS011;3186;54.062;9.962;2022-07-04T09:21:58;2.57;;;1.30;;
6306;SDS011;3186;54.062;9.962;2022-07-04T09:24:50;1.97;;;1.20;;
6306;SDS011;3186;54.062;9.962;2022-07-04T09:27:28;2.23;;;0.90;;
6306;SDS011;3186;54.062;9.962;2022-07-04T09:30:00;6.50;;;1.20;;
6306;SDS011;3186;54.062;9.962;2022-07-04T09:35:11;2.23;;;1.20;;
6306;SDS011;3186;54.062;9.962;2022-07-04T09:37:51;2.70;;;1.07;;
6306;SDS011;3186;54.062;9.962;2022-07-04T09:40:51;5.03;;;1.50;;
6306;SDS011;3186;54.062;9.962;2022-07-04T09:43:35;2.73;;;1.13;;
6306;SDS011;3186;54.062;9.962;2022-07-04T09:46:01;2.30;;;1.10;;
6306;SDS011;3186;54.062;9.962;2022-07-04T09:48:47;1.43;;;1.00;;
6306;SDS011;3186;54.062;9.962;2022-07-04T09:51:19;1.10;;;1.00;;
6306;SDS011;3186;54.062;9.962;2022-07-04T09:54:26;2.20;;;0.90;;
6306;SDS011;3186;54.062;9.962;2022-07-04T09:57:00;1.23;;;0.90;;
6306;SDS011;3186;54.062;9.962;2022-07-04T09:59:28;2.00;;;1.23;;
6306;SDS011;3186;54.062;9.962;2022-07-04T10:02:11;1.90;;;0.90;;
6306;SDS011;3186;54.062;9.962;2022-07-04T10:04:43;1.77;;;0.90;;
6306;SDS011;3186;54.062;9.962;2022-07-04T10:12:53;2.80;;;1.10;;
6306;SDS011;3186;54.062;9.962;2022-07-04T10:15:20;1.70;;;1.00;;
6306;SDS011;3186;54.062;9.962;2022-07-04T10:17:46;2.93;;;1.00;;
6306;SDS011;3186;54.062;9.962;2022-07-04T10:20:12;1.27;;;0.93;;
6306;SDS011;3186;54.062;9.962;2022-07-04T10:22:39;2.23;;;0.90;;
6306;SDS011;3186;54.062;9.962;2022-07-04T10:25:06;3.77;;;1.13;;
6306;SDS011;3186;54.062;9.962;2022-07-04T10:27:33;1.97;;;0.93;;
6306;SDS011;3186;54.062;9.962;2022-07-04T10:30:00;3.23;;;1.10;;
6306;SDS011;3186;54.062;9.962;2022-07-04T10:32:27;2.57;;;1.10;;
6306;SDS011;3186;54.062;9.962;2022-07-04T10:34:54;2.10;;;0.80;;
6306;SDS011;3186;54.062;9.962;2022-07-04T10:37:20;3.07;;;1.10;;
6306;SDS011;3186;54.062;9.962;2022-07-04T10:39:46;2.17;;;0.97;;
6306;SDS011;3186;54.062;9.962;2022-07-04T10:42:23;1.73;;;0.90;;
6306;SDS011;3186;54.062;9.962;2022-07-04T10:44:50;1.83;;;0.90;;
6306;SDS011;3186;54.062;9.962;2022-07-04T10:47:24;1.23;;;0.80;;
6306;SDS011;3186;54.062;9.962;2022-07-04T10:49:52;2.97;;;0.67;;
6306;SDS011;3186;54.062;9.962;2022-07-04T10:52:18;1.63;;;1.10;;
6306;SDS011;3186;54.062;9.962;2022-07-04T10:54:44;3.33;;;0.90;;
6306;SDS011;3186;54.062;9.962;2022-07-04T11:04:56;1.63;;;0.90;;
6306;SDS011;3186;54.062;9.962;2022-07-04T11:07:54;3.87;;;1.07;;
6306;SDS011;3186;54.062;9.962;2022-07-04T11:16:05;1.33;;;0.90;;
6306;SDS011;3186;54.062;9.962;2022-07-04T11:18:08;2.97;;;0.93;;
6306;SDS011;3186;54.062;9.962;2022-07-04T11:20:35;1.53;;;1.00;;
6306;SDS011;3186;54.062;9.962;2022-07-04T11:23:13;2.20;;;1.10;;
6306;SDS011;3186;54.062;9.962;2022-07-04T11:25:44;0.97;;;0.70;;
6306;SDS011;3186;54.062;9.962;2022-07-04T11:30:53;2.33;;;1.00;;
6306;SDS011;3186;54.062;9.962;2022-07-04T11:33:22;1.07;;;0.90;;
6306;SDS011;3186;54.062;9.962;2022-07-04T11:38:43;1.13;;;1.00;;
6306;SDS011;3186;54.062;9.962;2022-07-04T11:41:09;2.77;;;1.03;;
6306;SDS011;3186;54.062;9.962;2022-07-04T11:43:54;3.13;;;1.20;;
6306;SDS011;3186;54.062;9.962;2022-07-04T11:46:38;2.07;;;1.10;;
6306;SDS011;3186;54.062;9.962;2022-07-04T11:49:10;1.87;;;0.87;;
6306;SDS011;3186;54.062;9.962;2022-07-04T11:51:41;2.57;;;1.10;;
6306;SDS011;3186;54.062;9.962;2022-07-04T11:54:08;2.37;;;1.20;;
6306;SDS011;3186;54.062;9.962;2022-07-04T11:56:35;1.07;;;0.70;;
6306;SDS011;3186;54.062;9.962;2022-07-04T11:59:08;2.27;;;1.10;;
6306;SDS011;3186;54.062;9.962;2022-07-04T12:01:36;1.40;;;0.70;;
6306;SDS011;3186;54.062;9.962;2022-07-04T12:04:18;2.10;;;1.10;;
6306;SDS011;3186;54.062;9.962;2022-07-04T12:06:46;1.17;;;0.87;;
6306;SDS011;3186;54.062;9.962;2022-07-04T12:09:13;2.10;;;1.00;;
6306;SDS011;3186;54.062;9.962;2022-07-04T12:14:21;2.47;;;1.00;;
6306;SDS011;3186;54.062;9.962;2022-07-04T12:16:47;2.50;;;1.07;;
6306;SDS011;3186;54.062;9.962;2022-07-04T12:19:13;3.13;;;1.00;;
6306;SDS011;3186;54.062;9.962;2022-07-04T12:21:43;4.83;;;1.00;;
6306;SDS011;3186;54.062;9.962;2022-07-04T12:24:09;0.90;;;0.80;;
6306;SDS011;3186;54.062;9.962;2022-07-04T12:26:44;2.77;;;0.90;;
6306;SDS011;3186;54.062;9.962;2022-07-04T12:29:23;2.50;;;0.80;;
6306;SDS011;3186;54.062;9.962;2022-07-04T12:31:53;2.97;;;0.90;;
6306;SDS011;3186;54.062;9.962;2022-07-04T12:34:19;1.57;;;1.00;;
6306;SDS011;3186;54.062;9.962;2022-07-04T12:36:55;0.83;;;0.80;;
6306;SDS011;3186;54.062;9.962;2022-07-04T12:39:30;1.73;;;0.80;;
6306;SDS011;3186;54.062;9.962;2022-07-04T12:44:43;2.03;;;1.00;;
6306;SDS011;3186;54.062;9.962;2022-07-04T12:47:10;2.80;;;1.03;;
6306;SDS011;3186;54.062;9.962;2022-07-04T12:49:37;0.97;;;0.80;;
6306;SDS011;3186;54.062;9.962;2022-07-04T12:52:10;0.73;;;0.73;;
6306;SDS011;3186;54.062;9.962;2022-07-04T12:54:41;1.63;;;0.90;;
6306;SDS011;3186;54.062;9.962;2022-07-04T12:57:15;3.20;;;1.40;;
6306;SDS011;3186;54.062;9.962;2022-07-04T12:59:43;3.13;;;1.30;;
6306;SDS011;3186;54.062;9.962;2022-07-04T13:02:10;1.00;;;0.90;;
6306;SDS011;3186;54.062;9.962;2022-07-04T13:04:39;2.60;;;1.17;;
6306;SDS011;3186;54.062;9.962;2022-07-04T13:07:12;1.97;;;1.30;;
6306;SDS011;3186;54.062;9.962;2022-07-04T13:09:40;1.87;;;1.20;;
6306;SDS011;3186;54.062;9.962;2022-07-04T13:12:11;2.87;;;1.60;;
6306;SDS011;3186;54.062;9.962;2022-07-04T13:14:50;2.13;;;1.00;;
6306;SDS011;3186;54.062;9.962;2022-07-04T13:17:17;1.80;;;1.30;;
6306;SDS011;3186;54.062;9.962;2022-07-04T13:19:43;3.37;;;1.40;;
6306;SDS011;3186;54.062;9.962;2022-07-04T13:22:09;2.47;;;1.10;;
6306;SDS011;3186;54.062;9.962;2022-07-04T13:24:35;1.23;;;0.97;;
6306;SDS011;3186;54.062;9.962;2022-07-04T13:27:01;2.60;;;1.13;;
6306;SDS011;3186;54.062;9.962;2022-07-04T13:29:27;2.17;;;1.10;;
6306;SDS011;3186;54.062;9.962;2022-07-04T13:31:52;2.90;;;1.30;;
6306;SDS011;3186;54.062;9.962;2022-07-04T13:34:18;2.80;;;1.13;;
6306;SDS011;3186;54.062;9.962;2022-07-04T13:36:44;3.00;;;1.30;;
6306;SDS011;3186;54.062;9.962;2022-07-04T13:39:10;2.90;;;0.90;;
6306;SDS011;3186;54.062;9.962;2022-07-04T13:41:37;1.63;;;1.03;;
6306;SDS011;3186;54.062;9.962;2022-07-04T13:44:04;3.37;;;1.20;;
6306;SDS011;3186;54.062;9.962;2022-07-04T13:46:31;2.57;;;1.40;;
6306;SDS011;3186;54.062;9.962;2022-07-04T13:49:02;3.23;;;1.30;;
6306;SDS011;3186;54.062;9.962;2022-07-04T13:51:29;4.10;;;1.40;;
6306;SDS011;3186;54.062;9.962;2022-07-04T13:53:55;2.20;;;1.40;;
6306;SDS011;3186;54.062;9.962;2022-07-04T13:56:21;1.87;;;1.20;;
6306;SDS011;3186;54.062;9.962;2022-07-04T13:58:47;2.33;;;1.30;;
6306;SDS011;3186;54.062;9.962;2022-07-04T14:01:14;1.23;;;0.93;;
6306;SDS011;3186;54.062;9.962;2022-07-04T14:03:43;1.77;;;1.00;;
6306;SDS011;3186;54.062;9.962;2022-07-04T14:06:09;2.77;;;1.00;;
6306;SDS011;3186;54.062;9.962;2022-07-04T14:08:35;1.43;;;1.03;;
6306;SDS011;3186;54.062;9.962;2022-07-04T14:11:01;2.07;;;1.20;;
6306;SDS011;3186;54.062;9.962;2022-07-04T14:13:27;2.77;;;1.20;;
6306;SDS011;3186;54.062;9.962;2022-07-04T14:15:54;1.77;;;0.90;;
6306;SDS011;3186;54.062;9.962;2022-07-04T14:18:20;1.17;;;0.90;;
6306;SDS011;3186;54.062;9.962;2022-07-04T14:20:46;3.03;;;0.90;;
6306;SDS011;3186;54.062;9.962;2022-07-04T14:23:12;2.03;;;1.00;;
6306;SDS011;3186;54.062;9.962;2022-07-04T14:25:38;1.67;;;0.80;;
6306;SDS011;3186;54.062;9.962;2022-07-04T14:28:04;2.43;;;0.90;;
6306;SDS011;3186;54.062;9.962;2022-07-04T14:30:30;1.60;;;1.03;;
6306;SDS011;3186;54.062;9.962;2022-07-04T14:32:56;1.60;;;1.00;;
6306;SDS011;3186;54.062;9.962;2022-07-04T14:35:22;1.47;;;0.80;;
6306;SDS011;3186;54.062;9.962;2022-07-04T14:37:48;1.47;;;0.90;;
6306;SDS011;3186;54.062;9.962;2022-07-04T14:40:14;3.13;;;1.03;;
6306;SDS011;3186;54.062;9.962;2022-07-04T14:42:40;2.23;;;1.10;;
6306;SDS011;3186;54.062;9.962;2022-07-04T14:45:06;1.27;;;0.90;;
6306;SDS011;3186;54.062;9.962;2022-07-04T14:47:32;2.43;;;1.10;;
6306;SDS011;3186;54.062;9.962;2022-07-04T14:50:00;2.20;;;0.90;;
6306;SDS011;3186;54.062;9.962;2022-07-04T14:52:27;2.60;;;0.90;;
6306;SDS011;3186;54.062;9.962;2022-07-04T14:54:53;1.43;;;1.10;;
6306;SDS011;3186;54.062;9.962;2022-07-04T14:57:19;2.07;;;1.03;;
6306;SDS011;3186;54.062;9.962;2022-07-04T14:59:45;3.47;;;1.10;;
6306;SDS011;3186;54.062;9.962;2022-07-04T15:02:10;2.00;;;1.10;;
6306;SDS011;3186;54.062;9.962;2022-07-04T15:04:36;1.10;;;0.90;;
6306;SDS011;3186;54.062;9.962;2022-07-04T15:07:02;2.20;;;1.03;;
6306;SDS011;3186;54.062;9.962;2022-07-04T15:09:28;3.17;;;1.23;;
6306;SDS011;3186;54.062;9.962;2022-07-04T15:11:54;1.90;;;1.10;;
6306;SDS011;3186;54.062;9.962;2022-07-04T15:14:19;1.70;;;0.93;;
6306;SDS011;3186;54.062;9.962;2022-07-04T15:16:45;2.60;;;1.33;;
6306;SDS011;3186;54.062;9.962;2022-07-04T15:19:11;2.10;;;1.00;;
6306;SDS011;3186;54.062;9.962;2022-07-04T15:21:37;2.33;;;1.10;;
6306;SDS011;3186;54.062;9.962;2022-07-04T15:24:22;3.27;;;0.93;;
6306;SDS011;3186;54.062;9.962;2022-07-04T15:26:48;2.17;;;0.90;;
6306;SDS011;3186;54.062;9.962;2022-07-04T15:29:16;2.23;;;1.00;;
6306;SDS011;3186;54.062;9.962;2022-07-04T15:31:45;1.70;;;1.10;;
6306;SDS011;3186;54.062;9.962;2022-07-04T15:34:13;2.57;;;1.10;;
6306;SDS011;3186;54.062;9.962;2022-07-04T15:36:40;1.50;;;1.00;;
6306;SDS011;3186;54.062;9.962;2022-07-04T15:39:07;4.00;;;1.30;;
6306;SDS011;3186;54.062;9.962;2022-07-04T15:41:34;1.30;;;0.90;;
6306;SDS011;3186;54.062;9.962;2022-07-04T15:44:01;1.33;;;1.10;;
6306;SDS011;3186;54.062;9.962;2022-07-04T15:46:28;2.00;;;1.10;;
6306;SDS011;3186;54.062;9.962;2022-07-04T15:48:54;2.63;;;1.00;;
6306;SDS011;3186;54.062;9.962;2022-07-04T15:51:20;1.77;;;0.90;;